Latest Weather Observations for Lajamanu

IDD60801

Issued at 8:21 am CST Monday 1 March 2021 (issued every 10 minutes, with the page automatically refreshed every 10 minutes)

About weather observations | Map of weather stations | Latest weather observations for NT | Other Formats
Station Details ID: 014829 Name: LAJAMANU AIRPORT Lat: -18.33 Lon: 130.64 Height: 315.6 m
Data from the previous 72 hours. | See also: Recent months at Lajamanu
Date/Time
CST
Temp
°C
App
Temp
°C
Dew
Point
°C
Rel
Hum
%
Delta-T
°C
Wind Press
QNH
hPa
Press
MSL
hPa
Rain since
9am
mm
Dir  Spd
km/h
Gust
km/h
Spd
kts
Gust
kts
01/08:00am 23.3 22.5 11.7 48 6.6 WNW 7 11 4 6 1010.2 1007.7 0.0
01/07:30am 22.2 21.3 11.3 50 6.2 NW 7 11 4 6 1009.9 1007.4 0.0
01/07:00am 20.8 19.4 10.9 53 5.5 NW 9 11 5 6 1009.5 1007.0 0.0
01/06:30am 20.7 19.3 10.8 53 5.5 NW 9 11 5 6 1009.1 1006.7 0.0
01/06:00am 21.2 19.7 10.7 51 5.8 NW 9 11 5 6 1008.9 1006.4 0.0
01/05:30am 21.4 19.9 10.6 50 6.0 WNW 9 13 5 7 1008.8 1006.3 0.0
01/05:00am 21.8 20.7 10.6 49 6.2 NW 7 11 4 6 1008.6 1006.1 0.0
01/04:30am 21.8 20.4 10.9 50 6.1 NW 9 11 5 6 1008.5 1006.0 0.0
01/04:00am 22.0 20.7 11.4 51 6.0 NW 9 9 5 5 1008.5 1006.0 0.0
01/03:30am 22.0 20.7 11.4 51 6.0 NW 9 11 5 6 1008.5 1006.0 0.0
01/03:00am 21.6 20.4 11.6 53 5.7 WNW 9 11 5 6 1008.8 1006.3 0.0
01/02:30am 23.3 22.3 10.4 44 7.2 WNW 6 7 3 4 1009.0 1006.6 0.0
01/02:00am 23.0 22.1 9.4 42 7.5 ENE 4 9 2 5 1009.5 1007.0 0.0
01/01:30am 24.0 22.7 9.2 39 8.1 ESE 6 11 3 6 1009.7 1007.2 0.0
01/01:00am 25.4 23.2 8.0 33 9.4 N 9 11 5 6 1009.7 1007.2 0.0
01/12:30am 24.0 24.6 12.0 47 6.9 CALM 0 0 0 0 1009.8 1007.3 0.0
01/12:00am 24.8 25.0 10.7 41 8.0 CALM 0 0 0 0 1009.9 1007.4 0.0
 
Date/Time
CST
Temp
°C
App
Temp
°C
Dew
Point
°C
Rel
Hum
%
Delta-T
°C
Wind Press
QNH
hPa
Press
MSL
hPa
Rain since
9am
mm
Dir  Spd
km/h
Gust
km/h
Spd
kts
Gust
kts
28/11:30pm 27.1 24.8 7.5 29 10.6 NNE 9 11 5 6 1009.9 1007.4 0.0
28/11:00pm 30.0 26.2 3.9 19 13.5 NE 13 15 7 8 1009.7 1007.2 0.0
28/10:30pm 30.0 26.7 4.6 20 13.3 NE 11 13 6 7 1009.6 1007.1 0.0
28/10:00pm 29.5 26.4 5.6 22 12.7 NE 11 13 6 7 1009.2 1006.8 0.0
28/09:30pm 29.7 26.6 5.7 22 12.8 NE 11 13 6 7 1008.9 1006.4 0.0
28/09:00pm 30.2 26.6 4.8 20 13.4 NE 13 15 7 8 1008.5 1006.0 0.0
28/08:30pm 30.1 27.0 5.4 21 13.2 ENE 11 13 6 7 1008.1 1005.6 0.0
28/08:00pm 31.1 28.5 6.2 21 13.5 ENE 9 11 5 6 1007.8 1005.3 0.0
28/07:30pm 31.9 28.8 5.4 19 14.3 E 11 11 6 6 1007.3 1004.8 0.0
28/07:00pm 34.3 31.3 4.0 15 16.1 ESE 9 13 5 7 1006.9 1004.4 0.0
28/06:30pm 36.1 32.4 2.2 12 17.7 SE 11 13 6 7 1006.8 1004.3 0.0
28/06:00pm 36.6 32.9 2.6 12 18.0 SSE 11 15 6 8 1006.7 1004.2 0.0
28/05:30pm 37.7 34.7 0.9 10 19.0 SSE 6 13 3 7 1006.7 1004.2 0.0
28/05:00pm 37.6 34.5 3.4 12 18.3 SW 9 13 5 7 1006.6 1004.1 0.0
28/04:30pm 38.2 34.9 2.6 11 19.0 SW 9 15 5 8 1006.6 1004.1 0.0
28/04:00pm 38.0 33.6 2.5 11 18.8 SSW 15 22 8 12 1006.8 1004.3 0.0
28/03:30pm 38.2 34.2 2.6 11 19.0 SSW 13 19 7 10 1007.1 1004.6 0.0
28/03:00pm 37.7 34.0 2.2 11 18.7 ESE 11 22 6 12 1007.5 1005.0 0.0
28/02:30pm 37.9 33.2 1.0 10 19.1 SSE 15 20 8 11 1007.7 1005.2 0.0
28/02:00pm 38.1 34.6 1.2 10 19.2 NE 9 13 5 7 1008.2 1005.7 0.0
28/01:30pm 37.7 33.4 0.9 10 19.0 ESE 13 20 7 11 1008.5 1006.0 0.0
28/01:00pm 37.5 33.4 2.1 11 18.6 SE 13 22 7 12 1008.9 1006.4 0.0
28/12:30pm 37.3 34.0 4.3 13 17.9 SSE 11 20 6 11 1009.3 1006.9 0.0
28/12:00pm 36.5 34.4 3.7 13 17.6 WNW 4 11 2 6 1009.8 1007.3 0.0
28/11:30am 35.9 32.7 3.2 13 17.3 W 9 13 5 7 1010.0 1007.5 0.0
28/11:00am 35.1 32.0 5.5 16 16.2 WNW 11 20 6 11 1010.1 1007.6 0.0
28/10:30am 34.2 32.4 10.7 24 13.9 W 11 15 6 8 1010.3 1007.8 0.0
28/10:00am 32.6 31.7 11.2 27 12.6 W 7 11 4 6 1010.3 1007.8 0.0
28/09:30am 30.6 30.4 13.0 34 10.6 W 6 9 3 5 1010.2 1007.7 0.0
28/09:00am 28.4 28.0 13.1 39 9.2 WNW 7 9 4 5 1010.0 1007.5 0.0
28/08:30am 26.3 26.4 13.8 46 7.5 WNW 6 9 3 5 1009.7 1007.2 0.0
28/08:00am 23.7 23.4 12.7 50 6.4 NW 6 9 3 5 1009.3 1006.9 0.0
28/07:30am 21.7 21.4 12.8 57 5.2 NW 6 7 3 4 1008.9 1006.4 0.0
28/07:00am 20.3 19.4 11.5 57 4.9 NW 7 11 4 6 1008.7 1006.2 0.0
28/06:30am 21.0 19.6 10.8 52 5.7 NW 9 9 5 5 1008.4 1005.9 0.0
28/06:00am 21.2 20.1 10.7 51 5.8 NNW 7 9 4 5 1008.3 1005.8 0.0
28/05:30am 21.5 20.2 10.0 48 6.3 NW 7 9 4 5 1008.1 1005.6 0.0
28/05:00am 22.1 20.7 9.6 45 6.8 WNW 7 11 4 6 1008.0 1005.5 0.0
28/04:30am 21.6 20.4 10.4 49 6.2 WNW 7 11 4 6 1008.0 1005.5 0.0
28/04:00am 21.2 20.0 10.4 50 6.0 W 7 9 4 5 1008.1 1005.6 0.0
28/03:30am 21.7 19.9 9.6 46 6.6 NNW 9 9 5 5 1008.1 1005.6 0.0
28/03:00am 22.7 20.4 9.1 42 7.4 NW 11 13 6 7 1008.1 1005.6 0.0
28/02:30am 25.9 22.9 6.0 28 10.5 NE 11 13 6 7 1008.1 1005.6 0.0
28/02:00am 24.9 22.1 7.1 32 9.5 ENE 11 13 6 7 1008.3 1005.8 0.0
28/01:30am 24.9 21.9 7.5 33 9.3 E 13 13 7 7 1008.6 1006.1 0.0
28/01:00am 24.8 22.4 7.0 32 9.4 ENE 9 11 5 6 1008.8 1006.3 0.0
28/12:30am 25.4 23.3 6.6 30 10.0 ENE 7 9 4 5 1008.9 1006.4 0.0
28/12:00am 26.6 23.7 6.6 28 10.7 ENE 11 13 6 7 1009.0 1006.6 0.0
 
Date/Time
CST
Temp
°C
App
Temp
°C
Dew
Point
°C
Rel
Hum
%
Delta-T
°C
Wind Press
QNH
hPa
Press
MSL
hPa
Rain since
9am
mm
Dir  Spd
km/h
Gust
km/h
Spd
kts
Gust
kts
27/11:30pm 26.7 24.1 7.7 30 10.3 ENE 11 13 6 7 1009.0 1006.6 0.0
27/11:00pm 27.6 24.7 6.4 26 11.3 ENE 11 11 6 6 1008.6 1006.1 0.0
27/10:30pm 28.1 24.9 6.8 26 11.5 ENE 13 13 7 7 1008.5 1006.0 0.0
27/10:00pm 28.2 25.5 7.4 27 11.3 ENE 11 13 6 7 1008.2 1005.7 0.0
27/09:30pm 28.5 25.7 7.1 26 11.6 NE 11 13 6 7 1008.0 1005.5 0.0
27/09:00pm 28.8 26.1 7.4 26 11.7 ENE 11 13 6 7 1007.7 1005.2 0.0
27/08:30pm 28.8 26.4 8.5 28 11.3 ENE 11 11 6 6 1007.4 1004.9 0.0
27/08:00pm 29.4 27.2 7.9 26 11.9 E 9 11 5 6 1006.9 1004.4 0.0
27/07:30pm 30.6 28.1 8.3 25 12.5 E 11 13 6 7 1006.6 1004.1 0.0
27/07:00pm 33.3 31.2 6.6 19 14.7 ESE 7 9 4 5 1006.4 1003.9 0.0
27/06:30pm 35.1 32.0 3.6 14 16.8 SSE 9 11 5 6 1006.0 1003.5 0.0
27/06:00pm 35.5 32.1 3.9 14 16.9 SSE 11 13 6 7 1005.8 1003.3 0.0
27/05:30pm 36.8 34.3 4.9 14 17.5 S 7 11 4 6 1005.6 1003.1 0.0
27/05:00pm 36.8 33.8 3.9 13 17.7 SSE 9 13 5 7 1005.5 1003.0 0.0
27/04:30pm 36.4 33.3 3.6 13 17.6 S 9 17 5 9 1005.5 1003.0 0.0
27/04:00pm 36.5 33.0 3.7 13 17.6 SW 11 19 6 10 1005.7 1003.2 0.0
27/03:30pm 36.2 32.3 3.4 13 17.5 SE 13 20 7 11 1005.8 1003.3 0.0
27/03:00pm 36.3 32.4 3.5 13 17.5 ESE 13 32 7 17 1005.9 1003.4 0.0
27/02:30pm 35.8 33.0 2.0 12 17.6 NE 6 9 3 5 1006.2 1003.7 0.0
27/02:00pm 35.8 33.0 2.0 12 17.6 S 6 13 3 7 1006.5 1004.0 0.0
27/01:30pm 35.9 32.5 2.1 12 17.6 NE 9 22 5 12 1007.0 1004.5 0.0
27/01:00pm 36.0 31.9 2.1 12 17.7 ENE 13 20 7 11 1007.4 1004.9 0.0
27/12:30pm 35.4 32.5 1.7 12 17.4 SW 6 13 3 7 1007.9 1005.4 0.0
27/12:00pm 35.0 31.9 3.5 14 16.7 NNE 9 15 5 8 1008.2 1005.7 0.0
27/11:30am 34.4 31.4 4.0 15 16.2 NW 9 15 5 8 1008.5 1006.0 0.0
27/11:00am 33.3 31.5 9.4 23 13.8 WNW 9 15 5 8 1008.7 1006.2 0.0
27/10:30am 32.2 30.6 10.3 26 12.8 WNW 9 13 5 7 1009.0 1006.6 0.0
27/10:00am 30.9 29.5 12.3 32 11.1 WNW 11 15 6 8 1009.1 1006.7 0.0
27/09:30am 29.4 29.1 13.2 37 9.8 WNW 7 11 4 6 1009.0 1006.6 0.0
27/09:00am 27.4 27.4 13.7 43 8.2 WSW 6 9 3 5 1008.8 1006.3 0.0
27/08:30am 25.8 25.7 14.0 48 7.1 WSW 7 9 4 5 1008.7 1006.2 0.0
27/08:00am 24.4 25.6 13.9 52 6.3 CALM 0 0 0 0 1008.6 1006.1 0.0
27/07:30am 22.9 24.0 13.4 55 5.6 CALM 0 0 0 0 1008.4 1005.9 0.0
27/07:00am 20.6 21.4 13.6 64 4.1 ENE 2 6 1 3 1008.1 1005.6 0.0
27/06:30am 20.1 18.8 13.8 67 3.7 E 13 13 7 7 1008.0 1005.5 0.0
27/06:00am 20.5 19.8 13.2 63 4.2 ESE 9 13 5 7 1007.5 1005.0 0.0
27/05:30am 22.0 21.9 13.4 58 5.0 WNW 6 7 3 4 1007.1 1004.6 0.0
27/05:00am 22.3 21.8 12.8 55 5.5 NW 7 9 4 5 1006.8 1004.3 0.0
27/04:30am 22.7 22.5 12.9 54 5.7 NW 6 7 3 4 1006.6 1004.1 0.0
27/04:00am 23.0 22.4 12.3 51 6.2 NW 7 9 4 5 1006.6 1004.1 0.0
27/03:30am 23.1 22.5 12.4 51 6.2 NW 7 7 4 4 1006.6 1004.1 0.0
27/03:00am 23.2 23.6 12.5 51 6.2 NW 2 9 1 5 1006.7 1004.2 0.0
27/02:30am 23.9 24.4 11.6 46 7.1 CALM 0 0 0 0 1006.9 1004.4 0.0
27/02:00am 24.7 24.9 10.6 41 8.0 CALM 0 0 0 0 1007.2 1004.7 0.0
27/01:30am 25.9 25.0 9.3 35 9.2 NW 4 9 2 5 1007.4 1004.9 0.0
27/01:00am 27.4 24.6 6.8 27 11.0 NE 11 15 6 8 1007.1 1004.6 0.0
27/12:30am 27.5 24.6 6.3 26 11.3 NE 11 15 6 8 1007.2 1004.7 0.0
27/12:00am 27.5 24.8 7.4 28 10.9 NNE 11 13 6 7 1007.7 1005.2 0.0
 
Date/Time
CST
Temp
°C
App
Temp
°C
Dew
Point
°C
Rel
Hum
%
Delta-T
°C
Wind Press
QNH
hPa
Press
MSL
hPa
Rain since
9am
mm
Dir  Spd
km/h
Gust
km/h
Spd
kts
Gust
kts
26/11:30pm 28.4 25.5 6.5 25 11.8 NE 11 13 6 7 1007.7 1005.2 0.0
26/11:00pm 28.1 25.3 6.8 26 11.5 NE 11 13 6 7 1007.6 1005.1 0.0
26/10:30pm 28.1 25.3 8.4 29 10.9 NNE 13 15 7 8 1007.5 1005.0 0.0
26/10:00pm 27.9 25.7 9.2 31 10.5 NE 11 13 6 7 1007.4 1004.9 0.0
26/09:30pm 28.2 26.0 9.5 31 10.6 NE 11 13 6 7 1007.2 1004.7 0.0
26/09:00pm 29.0 26.8 9.2 29 11.2 NE 11 13 6 7 1007.0 1004.5 0.0
26/08:30pm 28.4 27.0 9.6 31 10.7 ENE 7 11 4 6 1006.6 1004.1 0.0
26/08:00pm 29.9 28.0 8.9 27 11.8 NE 9 13 5 7 1006.2 1003.7 0.0
26/07:30pm 31.1 30.7 8.2 24 12.9 CALM 0 0 0 0 1005.8 1003.3 0.0
26/07:00pm 32.8 31.1 7.6 21 14.1 SE 6 9 3 5 1005.4 1002.9 0.0
26/06:30pm 34.1 30.7 3.8 15 16.1 SE 11 15 6 8 1005.3 1002.8 0.0
26/06:00pm 34.6 32.0 6.0 17 15.8 SE 9 15 5 8 1005.0 1002.5 0.0
26/05:30pm 35.0 32.6 5.4 16 16.2 S 7 11 4 6 1004.9 1002.4 0.0
26/05:00pm 34.9 32.3 6.2 17 15.9 E 9 15 5 8 1004.8 1002.3 0.0
26/04:30pm 35.3 33.6 5.7 16 16.3 ENE 4 11 2 6 1004.9 1002.4 0.0
26/04:00pm 35.3 31.9 3.8 14 16.8 NW 11 20 6 11 1005.2 1002.7 0.0
26/03:30pm 35.3 32.0 4.8 15 16.6 N 11 17 6 9 1005.4 1002.9 0.0
26/03:00pm 35.5 33.0 8.3 19 15.6 NE 11 20 6 11 1005.8 1003.3 0.0
26/02:30pm 34.6 32.2 6.8 18 15.5 NE 9 22 5 12 1006.2 1003.7 0.0
26/02:00pm 34.7 32.5 6.1 17 15.8 S 7 13 4 7 1006.5 1004.0 0.0
26/01:30pm 35.0 31.9 7.1 18 15.7 ENE 13 22 7 12 1006.9 1004.4 0.0
26/01:00pm 34.5 30.7 5.9 17 15.7 ENE 15 20 8 11 1007.3 1004.8 0.0
26/12:30pm 34.0 31.8 7.9 20 14.8 E 9 17 5 9 1007.6 1005.1 0.0
26/12:00pm 33.1 30.7 8.5 22 14.0 SE 11 17 6 9 1007.8 1005.3 0.0
26/11:30am 32.7 30.8 8.9 23 13.6 SE 9 17 5 9 1008.0 1005.5 0.0
26/11:00am 31.7 30.2 9.3 25 12.8 SE 7 13 4 7 1008.3 1005.8 0.0
26/10:30am 31.0 28.6 8.7 25 12.6 SSE 11 15 6 8 1008.6 1006.1 0.0
26/10:00am 30.5 27.8 10.5 29 11.6 SE 15 19 8 10 1008.7 1006.2 0.0
26/09:30am 28.6 27.3 11.2 34 10.1 SSE 9 13 5 7 1008.6 1006.1 0.0
26/09:00am 27.4 26.4 13.4 42 8.4 S 11 15 6 8 1008.5 1006.0 0.0
26/08:30am 25.6 25.4 13.1 46 7.4 SSE 6 13 3 7 1008.4 1005.9 0.0

Other formats

Comma delimited format used in spreadsheet applications
http://www.bom.gov.au/fwo/IDD60801/IDD60801.94231.axf

JavaScript Object Notation format (JSON) in row-major order
http://www.bom.gov.au/fwo/IDD60801/IDD60801.94231.json

Data quality

Most of these data are generated automatically and are frequently updated. Quality checks on data are not normally performed. It is possible for incorrect values to appear. Refer to information at About Latest Weather Observations and please check the disclaimer before using these data.